sensor_id;sensor_type;location;lat;lon;timestamp;temperature;humidity
11609;DHT22;5860;52.018;8.536;2023-02-15T00:00:04;2.40;99.90
11609;DHT22;5860;52.018;8.536;2023-02-15T00:02:32;2.40;99.90
11609;DHT22;5860;52.018;8.536;2023-02-15T00:04:59;2.50;99.90
11609;DHT22;5860;52.018;8.536;2023-02-15T00:07:29;2.40;99.90
11609;DHT22;5860;52.018;8.536;2023-02-15T00:09:56;2.30;99.90
11609;DHT22;5860;52.018;8.536;2023-02-15T00:12:23;2.30;99.90
11609;DHT22;5860;52.018;8.536;2023-02-15T00:14:50;2.20;99.90
11609;DHT22;5860;52.018;8.536;2023-02-15T00:17:21;2.10;99.90
11609;DHT22;5860;52.018;8.536;2023-02-15T00:19:48;2.10;99.90
11609;DHT22;5860;52.018;8.536;2023-02-15T00:22:14;2.00;99.90
11609;DHT22;5860;52.018;8.536;2023-02-15T00:24:42;2.00;99.90
11609;DHT22;5860;52.018;8.536;2023-02-15T00:27:09;2.00;99.90
11609;DHT22;5860;52.018;8.536;2023-02-15T00:29:36;1.90;99.90
11609;DHT22;5860;52.018;8.536;2023-02-15T00:32:04;1.80;99.90
11609;DHT22;5860;52.018;8.536;2023-02-15T00:34:31;1.80;99.90
11609;DHT22;5860;52.018;8.536;2023-02-15T00:36:58;1.80;99.90
11609;DHT22;5860;52.018;8.536;2023-02-15T00:39:24;1.70;99.90
11609;DHT22;5860;52.018;8.536;2023-02-15T00:41:54;1.80;99.90
11609;DHT22;5860;52.018;8.536;2023-02-15T00:44:26;1.80;99.90
11609;DHT22;5860;52.018;8.536;2023-02-15T00:46:55;1.80;99.90
11609;DHT22;5860;52.018;8.536;2023-02-15T00:49:22;1.70;99.90
11609;DHT22;5860;52.018;8.536;2023-02-15T00:51:49;1.70;99.90
11609;DHT22;5860;52.018;8.536;2023-02-15T00:54:16;1.70;99.90
11609;DHT22;5860;52.018;8.536;2023-02-15T00:56:43;1.80;99.90
11609;DHT22;5860;52.018;8.536;2023-02-15T00:59:10;1.80;99.90
11609;DHT22;5860;52.018;8.536;2023-02-15T01:01:37;1.60;99.90
11609;DHT22;5860;52.018;8.536;2023-02-15T01:04:04;1.50;99.90
11609;DHT22;5860;52.018;8.536;2023-02-15T01:06:31;1.60;99.90
11609;DHT22;5860;52.018;8.536;2023-02-15T01:08:58;1.50;99.90
11609;DHT22;5860;52.018;8.536;2023-02-15T01:11:25;1.50;99.90
11609;DHT22;5860;52.018;8.536;2023-02-15T01:13:55;1.50;99.90
11609;DHT22;5860;52.018;8.536;2023-02-15T01:16:23;1.50;99.90
11609;DHT22;5860;52.018;8.536;2023-02-15T01:18:50;1.50;99.90
11609;DHT22;5860;52.018;8.536;2023-02-15T01:21:20;1.40;99.90
11609;DHT22;5860;52.018;8.536;2023-02-15T01:23:47;1.30;99.90
11609;DHT22;5860;52.018;8.536;2023-02-15T01:26:19;1.30;99.90
11609;DHT22;5860;52.018;8.536;2023-02-15T01:28:46;1.30;99.90
11609;DHT22;5860;52.018;8.536;2023-02-15T01:31:16;1.20;99.90
11609;DHT22;5860;52.018;8.536;2023-02-15T01:33:44;1.20;99.90
11609;DHT22;5860;52.018;8.536;2023-02-15T01:36:12;1.10;99.90
11609;DHT22;5860;52.018;8.536;2023-02-15T01:38:39;1.10;99.90
11609;DHT22;5860;52.018;8.536;2023-02-15T01:41:06;1.10;99.90
11609;DHT22;5860;52.018;8.536;2023-02-15T01:43:55;1.00;99.90
11609;DHT22;5860;52.018;8.536;2023-02-15T01:46:33;1.00;99.90
11609;DHT22;5860;52.018;8.536;2023-02-15T01:49:07;1.10;99.90
11609;DHT22;5860;52.018;8.536;2023-02-15T01:51:37;1.00;99.90
11609;DHT22;5860;52.018;8.536;2023-02-15T01:54:15;1.00;99.90
11609;DHT22;5860;52.018;8.536;2023-02-15T01:56:51;1.00;99.90
11609;DHT22;5860;52.018;8.536;2023-02-15T01:59:21;1.00;99.90
11609;DHT22;5860;52.018;8.536;2023-02-15T02:01:52;1.00;99.90
11609;DHT22;5860;52.018;8.536;2023-02-15T02:04:31;0.90;99.90
11609;DHT22;5860;52.018;8.536;2023-02-15T02:07:02;0.90;99.90
11609;DHT22;5860;52.018;8.536;2023-02-15T02:09:30;0.80;99.90
11609;DHT22;5860;52.018;8.536;2023-02-15T02:11:58;0.80;99.90
11609;DHT22;5860;52.018;8.536;2023-02-15T02:14:28;0.80;99.90
11609;DHT22;5860;52.018;8.536;2023-02-15T02:23:03;0.80;99.90
11609;DHT22;5860;52.018;8.536;2023-02-15T02:33:43;0.70;99.90
11609;DHT22;5860;52.018;8.536;2023-02-15T02:36:31;0.60;99.90
11609;DHT22;5860;52.018;8.536;2023-02-15T02:42:06;0.70;99.90
11609;DHT22;5860;52.018;8.536;2023-02-15T02:44:42;0.70;99.90
11609;DHT22;5860;52.018;8.536;2023-02-15T02:47:48;0.60;99.90
11609;DHT22;5860;52.018;8.536;2023-02-15T02:50:21;0.60;99.90
11609;DHT22;5860;52.018;8.536;2023-02-15T02:52:52;0.50;99.90
11609;DHT22;5860;52.018;8.536;2023-02-15T02:55:28;0.50;99.90
11609;DHT22;5860;52.018;8.536;2023-02-15T03:03:28;0.50;99.90
11609;DHT22;5860;52.018;8.536;2023-02-15T03:06:03;0.50;99.90
11609;DHT22;5860;52.018;8.536;2023-02-15T03:08:38;0.50;99.90
11609;DHT22;5860;52.018;8.536;2023-02-15T03:11:11;0.40;99.90
11609;DHT22;5860;52.018;8.536;2023-02-15T03:13:41;0.40;99.90
11609;DHT22;5860;52.018;8.536;2023-02-15T03:16:14;0.30;99.90
11609;DHT22;5860;52.018;8.536;2023-02-15T03:18:56;0.30;99.90
11609;DHT22;5860;52.018;8.536;2023-02-15T03:24:03;0.30;99.90
11609;DHT22;5860;52.018;8.536;2023-02-15T03:26:34;0.30;99.90
11609;DHT22;5860;52.018;8.536;2023-02-15T03:29:04;0.20;99.90
11609;DHT22;5860;52.018;8.536;2023-02-15T03:31:35;0.30;99.90
11609;DHT22;5860;52.018;8.536;2023-02-15T03:34:07;0.20;99.90
11609;DHT22;5860;52.018;8.536;2023-02-15T03:36:46;0.20;99.90
11609;DHT22;5860;52.018;8.536;2023-02-15T03:39:47;0.20;99.90
11609;DHT22;5860;52.018;8.536;2023-02-15T03:42:31;0.10;99.90
11609;DHT22;5860;52.018;8.536;2023-02-15T03:45:06;0.10;99.90
11609;DHT22;5860;52.018;8.536;2023-02-15T03:47:40;0.10;99.90
11609;DHT22;5860;52.018;8.536;2023-02-15T03:50:11;0.10;99.90
11609;DHT22;5860;52.018;8.536;2023-02-15T03:53:02;0.00;99.90
11609;DHT22;5860;52.018;8.536;2023-02-15T03:55:30;0.00;99.90
11609;DHT22;5860;52.018;8.536;2023-02-15T03:57:57;-0.10;99.90
11609;DHT22;5860;52.018;8.536;2023-02-15T04:00:54;0.00;99.90
11609;DHT22;5860;52.018;8.536;2023-02-15T04:03:49;0.10;99.90
11609;DHT22;5860;52.018;8.536;2023-02-15T04:06:18;0.00;99.90
11609;DHT22;5860;52.018;8.536;2023-02-15T04:08:45;0.10;99.90
11609;DHT22;5860;52.018;8.536;2023-02-15T04:11:31;0.10;99.90
11609;DHT22;5860;52.018;8.536;2023-02-15T04:13:58;-0.10;99.90
11609;DHT22;5860;52.018;8.536;2023-02-15T04:16:25;-0.20;99.90
11609;DHT22;5860;52.018;8.536;2023-02-15T04:18:52;-0.10;99.90
11609;DHT22;5860;52.018;8.536;2023-02-15T04:21:40;-0.20;99.90
11609;DHT22;5860;52.018;8.536;2023-02-15T04:24:29;-0.10;99.90
11609;DHT22;5860;52.018;8.536;2023-02-15T04:27:14;-0.20;99.90
11609;DHT22;5860;52.018;8.536;2023-02-15T04:29:43;-0.40;99.90
11609;DHT22;5860;52.018;8.536;2023-02-15T04:32:10;-0.30;99.90
11609;DHT22;5860;52.018;8.536;2023-02-15T04:34:38;-0.30;99.90
11609;DHT22;5860;52.018;8.536;2023-02-15T04:37:05;-0.30;99.90
11609;DHT22;5860;52.018;8.536;2023-02-15T04:39:34;-0.30;99.90
11609;DHT22;5860;52.018;8.536;2023-02-15T04:42:01;-0.30;99.90
11609;DHT22;5860;52.018;8.536;2023-02-15T04:44:28;-0.40;99.90
11609;DHT22;5860;52.018;8.536;2023-02-15T04:46:55;-0.40;99.90
11609;DHT22;5860;52.018;8.536;2023-02-15T04:49:22;-0.50;99.90
11609;DHT22;5860;52.018;8.536;2023-02-15T04:51:48;-0.40;99.90
11609;DHT22;5860;52.018;8.536;2023-02-15T04:54:15;-0.50;99.90
11609;DHT22;5860;52.018;8.536;2023-02-15T04:56:42;-0.40;99.90
11609;DHT22;5860;52.018;8.536;2023-02-15T04:59:11;-0.50;99.90
11609;DHT22;5860;52.018;8.536;2023-02-15T05:01:38;-0.50;99.90
11609;DHT22;5860;52.018;8.536;2023-02-15T05:04:05;-0.40;99.90
11609;DHT22;5860;52.018;8.536;2023-02-15T05:06:32;-0.50;99.90
11609;DHT22;5860;52.018;8.536;2023-02-15T05:08:58;-0.50;99.90
11609;DHT22;5860;52.018;8.536;2023-02-15T05:11:26;-0.50;99.90
11609;DHT22;5860;52.018;8.536;2023-02-15T05:13:53;-0.50;99.90
11609;DHT22;5860;52.018;8.536;2023-02-15T05:16:20;-0.50;99.90
11609;DHT22;5860;52.018;8.536;2023-02-15T05:18:49;-0.50;99.90
11609;DHT22;5860;52.018;8.536;2023-02-15T05:21:16;-0.60;99.90
11609;DHT22;5860;52.018;8.536;2023-02-15T05:23:43;-0.60;99.90
11609;DHT22;5860;52.018;8.536;2023-02-15T05:26:18;-0.60;99.90
11609;DHT22;5860;52.018;8.536;2023-02-15T05:29:05;-0.50;99.90
11609;DHT22;5860;52.018;8.536;2023-02-15T05:31:32;-0.60;99.90
11609;DHT22;5860;52.018;8.536;2023-02-15T05:34:00;-0.50;99.90
11609;DHT22;5860;52.018;8.536;2023-02-15T05:36:28;-0.50;99.90
11609;DHT22;5860;52.018;8.536;2023-02-15T05:38:58;-0.60;99.90
11609;DHT22;5860;52.018;8.536;2023-02-15T05:41:25;-0.60;99.90
11609;DHT22;5860;52.018;8.536;2023-02-15T05:43:54;-0.60;99.90
11609;DHT22;5860;52.018;8.536;2023-02-15T05:46:21;-0.60;99.90
11609;DHT22;5860;52.018;8.536;2023-02-15T05:48:48;-0.50;99.90
11609;DHT22;5860;52.018;8.536;2023-02-15T05:51:15;-0.60;99.90
11609;DHT22;5860;52.018;8.536;2023-02-15T05:53:43;-0.50;99.90
11609;DHT22;5860;52.018;8.536;2023-02-15T05:56:11;-0.60;99.90
11609;DHT22;5860;52.018;8.536;2023-02-15T05:58:41;-0.60;99.90
11609;DHT22;5860;52.018;8.536;2023-02-15T06:01:10;-0.50;99.90
11609;DHT22;5860;52.018;8.536;2023-02-15T06:03:37;-0.50;99.90
11609;DHT22;5860;52.018;8.536;2023-02-15T06:06:05;-0.60;99.90
11609;DHT22;5860;52.018;8.536;2023-02-15T06:08:34;-0.60;99.90
11609;DHT22;5860;52.018;8.536;2023-02-15T06:11:01;-0.60;99.90
11609;DHT22;5860;52.018;8.536;2023-02-15T06:13:28;-0.60;99.90
11609;DHT22;5860;52.018;8.536;2023-02-15T06:15:56;-0.60;99.90
11609;DHT22;5860;52.018;8.536;2023-02-15T06:18:25;-0.50;99.90
11609;DHT22;5860;52.018;8.536;2023-02-15T06:20:52;-0.60;99.90
11609;DHT22;5860;52.018;8.536;2023-02-15T06:23:19;-0.50;99.90
11609;DHT22;5860;52.018;8.536;2023-02-15T06:25:46;-0.60;99.90
11609;DHT22;5860;52.018;8.536;2023-02-15T06:28:13;-0.70;99.90
11609;DHT22;5860;52.018;8.536;2023-02-15T06:30:40;-0.60;99.90
11609;DHT22;5860;52.018;8.536;2023-02-15T06:33:07;-0.70;99.90
11609;DHT22;5860;52.018;8.536;2023-02-15T06:35:34;-0.70;99.90
11609;DHT22;5860;52.018;8.536;2023-02-15T06:38:01;-0.70;99.90
11609;DHT22;5860;52.018;8.536;2023-02-15T06:40:28;-0.60;99.90
11609;DHT22;5860;52.018;8.536;2023-02-15T06:42:54;-0.70;99.90
11609;DHT22;5860;52.018;8.536;2023-02-15T06:45:21;-0.70;99.90
11609;DHT22;5860;52.018;8.536;2023-02-15T06:47:48;-0.60;99.90
11609;DHT22;5860;52.018;8.536;2023-02-15T06:50:15;-0.60;99.90
11609;DHT22;5860;52.018;8.536;2023-02-15T06:52:42;-0.60;99.90
11609;DHT22;5860;52.018;8.536;2023-02-15T06:55:09;-0.60;99.90
11609;DHT22;5860;52.018;8.536;2023-02-15T06:57:36;-0.60;99.90
11609;DHT22;5860;52.018;8.536;2023-02-15T07:00:03;-0.50;99.90
11609;DHT22;5860;52.018;8.536;2023-02-15T07:02:33;-0.50;99.90
11609;DHT22;5860;52.018;8.536;2023-02-15T07:04:59;-0.50;99.90
11609;DHT22;5860;52.018;8.536;2023-02-15T07:07:26;-0.50;99.90
11609;DHT22;5860;52.018;8.536;2023-02-15T07:09:53;-0.50;99.90
11609;DHT22;5860;52.018;8.536;2023-02-15T07:12:20;-0.40;99.90
11609;DHT22;5860;52.018;8.536;2023-02-15T07:15:06;-0.40;99.90
11609;DHT22;5860;52.018;8.536;2023-02-15T07:17:34;-0.40;99.90
11609;DHT22;5860;52.018;8.536;2023-02-15T07:20:07;-0.40;99.90
11609;DHT22;5860;52.018;8.536;2023-02-15T07:22:35;-0.40;99.90
11609;DHT22;5860;52.018;8.536;2023-02-15T07:25:07;-0.40;99.90
11609;DHT22;5860;52.018;8.536;2023-02-15T07:27:35;-0.30;99.90
11609;DHT22;5860;52.018;8.536;2023-02-15T07:30:04;-0.30;99.90
11609;DHT22;5860;52.018;8.536;2023-02-15T07:32:32;-0.20;99.90
11609;DHT22;5860;52.018;8.536;2023-02-15T07:35:00;-0.20;99.90
11609;DHT22;5860;52.018;8.536;2023-02-15T07:37:27;-0.10;99.90
11609;DHT22;5860;52.018;8.536;2023-02-15T07:39:54;-0.10;99.90
11609;DHT22;5860;52.018;8.536;2023-02-15T07:42:21;-0.10;99.90
11609;DHT22;5860;52.018;8.536;2023-02-15T07:44:49;-0.10;99.90
11609;DHT22;5860;52.018;8.536;2023-02-15T07:47:15;0.00;99.90
11609;DHT22;5860;52.018;8.536;2023-02-15T07:49:42;0.00;99.90
11609;DHT22;5860;52.018;8.536;2023-02-15T07:52:09;0.10;99.90
11609;DHT22;5860;52.018;8.536;2023-02-15T07:54:36;0.10;99.90
11609;DHT22;5860;52.018;8.536;2023-02-15T07:57:03;0.10;99.90
11609;DHT22;5860;52.018;8.536;2023-02-15T07:59:30;0.20;99.90
11609;DHT22;5860;52.018;8.536;2023-02-15T08:01:58;0.30;99.90
11609;DHT22;5860;52.018;8.536;2023-02-15T08:04:25;0.40;99.90
11609;DHT22;5860;52.018;8.536;2023-02-15T08:06:53;0.30;99.90
11609;DHT22;5860;52.018;8.536;2023-02-15T08:09:21;0.30;99.90
11609;DHT22;5860;52.018;8.536;2023-02-15T08:11:48;0.40;99.90
11609;DHT22;5860;52.018;8.536;2023-02-15T08:14:18;0.50;99.90
11609;DHT22;5860;52.018;8.536;2023-02-15T08:16:49;0.50;99.90
11609;DHT22;5860;52.018;8.536;2023-02-15T08:19:25;0.50;99.90
11609;DHT22;5860;52.018;8.536;2023-02-15T08:22:01;0.60;99.90
11609;DHT22;5860;52.018;8.536;2023-02-15T08:24:30;0.60;99.90
11609;DHT22;5860;52.018;8.536;2023-02-15T08:27:01;0.60;99.90
11609;DHT22;5860;52.018;8.536;2023-02-15T08:29:35;0.80;99.90
11609;DHT22;5860;52.018;8.536;2023-02-15T08:32:05;0.80;99.90
11609;DHT22;5860;52.018;8.536;2023-02-15T08:34:35;0.80;99.90
11609;DHT22;5860;52.018;8.536;2023-02-15T08:37:03;1.00;99.90
11609;DHT22;5860;52.018;8.536;2023-02-15T08:39:30;0.90;99.90
11609;DHT22;5860;52.018;8.536;2023-02-15T08:41:56;1.10;99.90
11609;DHT22;5860;52.018;8.536;2023-02-15T08:44:24;1.20;99.90
11609;DHT22;5860;52.018;8.536;2023-02-15T08:46:51;1.20;99.90
11609;DHT22;5860;52.018;8.536;2023-02-15T08:49:22;1.20;99.90
11609;DHT22;5860;52.018;8.536;2023-02-15T08:51:50;1.30;99.90
11609;DHT22;5860;52.018;8.536;2023-02-15T08:54:21;1.30;99.90
11609;DHT22;5860;52.018;8.536;2023-02-15T08:56:48;1.40;99.90
11609;DHT22;5860;52.018;8.536;2023-02-15T08:59:17;1.50;99.90
11609;DHT22;5860;52.018;8.536;2023-02-15T09:01:46;1.60;99.90
11609;DHT22;5860;52.018;8.536;2023-02-15T09:04:15;1.70;99.90
11609;DHT22;5860;52.018;8.536;2023-02-15T09:06:46;1.80;99.90
11609;DHT22;5860;52.018;8.536;2023-02-15T09:09:16;1.80;99.90
11609;DHT22;5860;52.018;8.536;2023-02-15T09:11:49;1.90;99.90
11609;DHT22;5860;52.018;8.536;2023-02-15T09:14:24;2.00;99.90
11609;DHT22;5860;52.018;8.536;2023-02-15T09:16:54;2.00;99.90
11609;DHT22;5860;52.018;8.536;2023-02-15T09:19:24;2.10;99.90
11609;DHT22;5860;52.018;8.536;2023-02-15T09:21:55;2.20;99.90
11609;DHT22;5860;52.018;8.536;2023-02-15T09:24:22;2.30;99.90
11609;DHT22;5860;52.018;8.536;2023-02-15T09:26:50;2.40;99.90
11609;DHT22;5860;52.018;8.536;2023-02-15T09:29:18;2.50;99.90
11609;DHT22;5860;52.018;8.536;2023-02-15T09:31:48;2.60;99.90
11609;DHT22;5860;52.018;8.536;2023-02-15T09:34:19;2.80;99.90
11609;DHT22;5860;52.018;8.536;2023-02-15T09:36:50;2.80;99.90
11609;DHT22;5860;52.018;8.536;2023-02-15T09:39:25;2.90;99.90
11609;DHT22;5860;52.018;8.536;2023-02-15T09:50:43;3.40;99.90
11609;DHT22;5860;52.018;8.536;2023-02-15T09:56:26;3.40;99.90
11609;DHT22;5860;52.018;8.536;2023-02-15T09:59:34;3.60;99.90
11609;DHT22;5860;52.018;8.536;2023-02-15T10:21:31;4.20;99.90
11609;DHT22;5860;52.018;8.536;2023-02-15T10:26:46;4.50;99.90
11609;DHT22;5860;52.018;8.536;2023-02-15T10:29:48;4.50;99.90
11609;DHT22;5860;52.018;8.536;2023-02-15T10:32:25;4.70;99.90
11609;DHT22;5860;52.018;8.536;2023-02-15T10:35:37;4.90;99.90
11609;DHT22;5860;52.018;8.536;2023-02-15T10:38:20;5.00;99.90
11609;DHT22;5860;52.018;8.536;2023-02-15T10:41:08;5.00;99.90
11609;DHT22;5860;52.018;8.536;2023-02-15T10:43:58;5.20;99.90
11609;DHT22;5860;52.018;8.536;2023-02-15T10:50:15;5.40;99.90
11609;DHT22;5860;52.018;8.536;2023-02-15T11:06:35;6.10;99.90
11609;DHT22;5860;52.018;8.536;2023-02-15T11:09:13;6.20;99.90
11609;DHT22;5860;52.018;8.536;2023-02-15T11:11:49;6.20;99.90
11609;DHT22;5860;52.018;8.536;2023-02-15T11:14:44;6.30;99.90
11609;DHT22;5860;52.018;8.536;2023-02-15T11:17:17;6.40;99.90
11609;DHT22;5860;52.018;8.536;2023-02-15T11:22:16;6.50;99.90
11609;DHT22;5860;52.018;8.536;2023-02-15T11:24:45;6.70;99.90
11609;DHT22;5860;52.018;8.536;2023-02-15T11:27:20;6.70;99.90
11609;DHT22;5860;52.018;8.536;2023-02-15T11:30:05;6.70;99.90
11609;DHT22;5860;52.018;8.536;2023-02-15T11:32:45;6.70;99.90
11609;DHT22;5860;52.018;8.536;2023-02-15T11:35:26;6.80;99.90
11609;DHT22;5860;52.018;8.536;2023-02-15T11:40:35;7.00;99.90
11609;DHT22;5860;52.018;8.536;2023-02-15T11:43:11;7.10;99.90
11609;DHT22;5860;52.018;8.536;2023-02-15T11:45:42;7.30;99.90
11609;DHT22;5860;52.018;8.536;2023-02-15T11:48:12;7.40;99.90
11609;DHT22;5860;52.018;8.536;2023-02-15T11:50:41;7.50;99.90
11609;DHT22;5860;52.018;8.536;2023-02-15T11:53:14;7.60;99.90
11609;DHT22;5860;52.018;8.536;2023-02-15T11:55:43;7.70;99.90
11609;DHT22;5860;52.018;8.536;2023-02-15T11:58:18;7.70;99.90
11609;DHT22;5860;52.018;8.536;2023-02-15T12:00:50;7.70;99.90
11609;DHT22;5860;52.018;8.536;2023-02-15T12:03:27;8.00;99.90
11609;DHT22;5860;52.018;8.536;2023-02-15T12:06:02;8.00;99.90
11609;DHT22;5860;52.018;8.536;2023-02-15T12:08:44;8.00;99.90
11609;DHT22;5860;52.018;8.536;2023-02-15T12:11:20;8.00;99.90
11609;DHT22;5860;52.018;8.536;2023-02-15T12:14:00;8.20;99.90
11609;DHT22;5860;52.018;8.536;2023-02-15T12:16:29;8.20;99.90
11609;DHT22;5860;52.018;8.536;2023-02-15T12:19:00;8.40;99.90
11609;DHT22;5860;52.018;8.536;2023-02-15T12:21:36;8.60;99.90
11609;DHT22;5860;52.018;8.536;2023-02-15T12:24:20;8.60;99.90
11609;DHT22;5860;52.018;8.536;2023-02-15T12:27:10;8.70;99.90
11609;DHT22;5860;52.018;8.536;2023-02-15T12:29:49;8.80;99.90
11609;DHT22;5860;52.018;8.536;2023-02-15T12:32:25;8.90;99.90
11609;DHT22;5860;52.018;8.536;2023-02-15T12:37:36;9.00;99.90
11609;DHT22;5860;52.018;8.536;2023-02-15T12:40:27;9.10;99.90
11609;DHT22;5860;52.018;8.536;2023-02-15T12:42:57;9.30;99.90
11609;DHT22;5860;52.018;8.536;2023-02-15T12:45:30;9.30;99.90
11609;DHT22;5860;52.018;8.536;2023-02-15T12:48:20;9.40;99.90
11609;DHT22;5860;52.018;8.536;2023-02-15T12:50:49;9.20;99.90
11609;DHT22;5860;52.018;8.536;2023-02-15T12:53:36;9.30;99.90
11609;DHT22;5860;52.018;8.536;2023-02-15T12:56:10;9.30;99.90
11609;DHT22;5860;52.018;8.536;2023-02-15T12:58:42;9.40;99.90
11609;DHT22;5860;52.018;8.536;2023-02-15T13:01:24;9.40;99.90
11609;DHT22;5860;52.018;8.536;2023-02-15T13:04:05;9.30;99.90
11609;DHT22;5860;52.018;8.536;2023-02-15T13:06:48;9.50;99.90
11609;DHT22;5860;52.018;8.536;2023-02-15T13:12:21;9.70;99.90
11609;DHT22;5860;52.018;8.536;2023-02-15T13:14:52;9.60;99.90
11609;DHT22;5860;52.018;8.536;2023-02-15T13:17:30;9.60;99.90
11609;DHT22;5860;52.018;8.536;2023-02-15T13:20:09;9.70;99.90
11609;DHT22;5860;52.018;8.536;2023-02-15T13:22:45;9.70;99.90
11609;DHT22;5860;52.018;8.536;2023-02-15T13:25:24;9.80;99.90
11609;DHT22;5860;52.018;8.536;2023-02-15T13:27:56;9.90;99.90
11609;DHT22;5860;52.018;8.536;2023-02-15T13:30:37;9.90;99.90
11609;DHT22;5860;52.018;8.536;2023-02-15T13:33:09;9.90;99.90
11609;DHT22;5860;52.018;8.536;2023-02-15T13:35:58;10.00;99.90
11609;DHT22;5860;52.018;8.536;2023-02-15T13:39:08;9.90;99.90
11609;DHT22;5860;52.018;8.536;2023-02-15T13:53:51;10.30;99.90
11609;DHT22;5860;52.018;8.536;2023-02-15T13:56:53;10.40;99.90
11609;DHT22;5860;52.018;8.536;2023-02-15T14:08:32;10.60;99.90
11609;DHT22;5860;52.018;8.536;2023-02-15T14:19:40;10.60;99.90
11609;DHT22;5860;52.018;8.536;2023-02-15T14:25:15;10.60;99.90
11609;DHT22;5860;52.018;8.536;2023-02-15T14:30:44;10.70;99.90
11609;DHT22;5860;52.018;8.536;2023-02-15T14:35:43;10.70;99.90
11609;DHT22;5860;52.018;8.536;2023-02-15T14:41:49;10.70;99.90
11609;DHT22;5860;52.018;8.536;2023-02-15T14:44:27;10.70;99.90
11609;DHT22;5860;52.018;8.536;2023-02-15T14:49:40;10.70;99.90
11609;DHT22;5860;52.018;8.536;2023-02-15T14:52:08;10.70;99.90
11609;DHT22;5860;52.018;8.536;2023-02-15T14:59:55;10.60;99.90
11609;DHT22;5860;52.018;8.536;2023-02-15T15:05:05;10.50;99.90
11609;DHT22;5860;52.018;8.536;2023-02-15T15:07:49;10.40;99.90
11609;DHT22;5860;52.018;8.536;2023-02-15T15:12:49;10.40;99.90
11609;DHT22;5860;52.018;8.536;2023-02-15T15:18:07;10.50;99.90
11609;DHT22;5860;52.018;8.536;2023-02-15T15:23:42;10.40;99.90
11609;DHT22;5860;52.018;8.536;2023-02-15T15:26:28;10.30;99.90
11609;DHT22;5860;52.018;8.536;2023-02-15T15:28:57;10.40;99.90
11609;DHT22;5860;52.018;8.536;2023-02-15T15:45:08;10.10;99.90
11609;DHT22;5860;52.018;8.536;2023-02-15T15:47:53;10.00;99.90
11609;DHT22;5860;52.018;8.536;2023-02-15T15:50:32;9.90;99.90
11609;DHT22;5860;52.018;8.536;2023-02-15T15:53:01;9.80;99.90
11609;DHT22;5860;52.018;8.536;2023-02-15T15:55:30;9.80;99.90
11609;DHT22;5860;52.018;8.536;2023-02-15T15:58:04;9.80;99.90
11609;DHT22;5860;52.018;8.536;2023-02-15T16:00:47;9.50;99.90
11609;DHT22;5860;52.018;8.536;2023-02-15T16:03:22;9.40;99.90
11609;DHT22;5860;52.018;8.536;2023-02-15T16:05:50;9.00;99.90
11609;DHT22;5860;52.018;8.536;2023-02-15T16:08:37;8.90;99.90
11609;DHT22;5860;52.018;8.536;2023-02-15T16:11:16;8.70;99.90
11609;DHT22;5860;52.018;8.536;2023-02-15T16:13:44;8.60;99.90
11609;DHT22;5860;52.018;8.536;2023-02-15T16:16:13;8.50;99.90
11609;DHT22;5860;52.018;8.536;2023-02-15T16:18:44;8.40;99.90
11609;DHT22;5860;52.018;8.536;2023-02-15T16:21:21;8.30;99.90
11609;DHT22;5860;52.018;8.536;2023-02-15T16:29:38;8.50;99.90
11609;DHT22;5860;52.018;8.536;2023-02-15T16:32:19;8.60;99.90
11609;DHT22;5860;52.018;8.536;2023-02-15T16:34:57;8.50;99.90
11609;DHT22;5860;52.018;8.536;2023-02-15T16:37:34;8.30;99.90
11609;DHT22;5860;52.018;8.536;2023-02-15T16:40:02;8.10;99.90
11609;DHT22;5860;52.018;8.536;2023-02-15T16:42:29;7.90;99.90
11609;DHT22;5860;52.018;8.536;2023-02-15T16:45:02;7.70;99.90
11609;DHT22;5860;52.018;8.536;2023-02-15T16:47:35;7.70;99.90
11609;DHT22;5860;52.018;8.536;2023-02-15T16:50:06;7.70;99.90
11609;DHT22;5860;52.018;8.536;2023-02-15T16:52:49;7.70;99.90
11609;DHT22;5860;52.018;8.536;2023-02-15T16:55:24;7.50;99.90
11609;DHT22;5860;52.018;8.536;2023-02-15T16:57:55;7.30;99.90
11609;DHT22;5860;52.018;8.536;2023-02-15T17:00:26;7.10;99.90
11609;DHT22;5860;52.018;8.536;2023-02-15T17:02:58;6.90;99.90
11609;DHT22;5860;52.018;8.536;2023-02-15T17:05:40;6.80;99.90
11609;DHT22;5860;52.018;8.536;2023-02-15T17:08:17;6.70;99.90
11609;DHT22;5860;52.018;8.536;2023-02-15T17:11:03;6.60;99.90
11609;DHT22;5860;52.018;8.536;2023-02-15T17:13:31;6.50;99.90
11609;DHT22;5860;52.018;8.536;2023-02-15T17:18:38;6.70;99.90
11609;DHT22;5860;52.018;8.536;2023-02-15T17:21:12;6.50;99.90
11609;DHT22;5860;52.018;8.536;2023-02-15T17:23:42;6.50;99.90
11609;DHT22;5860;52.018;8.536;2023-02-15T17:26:24;6.50;99.90
11609;DHT22;5860;52.018;8.536;2023-02-15T17:29:02;6.50;99.90
11609;DHT22;5860;52.018;8.536;2023-02-15T17:31:37;6.40;99.90
11609;DHT22;5860;52.018;8.536;2023-02-15T17:34:05;6.50;99.90
11609;DHT22;5860;52.018;8.536;2023-02-15T17:36:32;6.50;99.90
11609;DHT22;5860;52.018;8.536;2023-02-15T17:39:06;6.50;99.90
11609;DHT22;5860;52.018;8.536;2023-02-15T17:41:35;6.40;99.90
11609;DHT22;5860;52.018;8.536;2023-02-15T17:44:04;6.60;99.90
11609;DHT22;5860;52.018;8.536;2023-02-15T17:46:36;6.70;99.90
11609;DHT22;5860;52.018;8.536;2023-02-15T17:49:03;6.60;99.90
11609;DHT22;5860;52.018;8.536;2023-02-15T17:51:31;6.50;99.90
11609;DHT22;5860;52.018;8.536;2023-02-15T17:54:01;6.40;99.90
11609;DHT22;5860;52.018;8.536;2023-02-15T17:56:47;6.20;99.90
11609;DHT22;5860;52.018;8.536;2023-02-15T17:59:15;6.20;99.90
11609;DHT22;5860;52.018;8.536;2023-02-15T18:01:45;6.00;99.90
11609;DHT22;5860;52.018;8.536;2023-02-15T18:04:35;6.00;99.90
11609;DHT22;5860;52.018;8.536;2023-02-15T18:07:21;6.10;99.90
11609;DHT22;5860;52.018;8.536;2023-02-15T18:10:16;6.10;99.90
11609;DHT22;5860;52.018;8.536;2023-02-15T18:13:02;6.20;99.90
11609;DHT22;5860;52.018;8.536;2023-02-15T18:15:30;5.90;99.90
11609;DHT22;5860;52.018;8.536;2023-02-15T18:17:57;5.90;99.90
11609;DHT22;5860;52.018;8.536;2023-02-15T18:20:32;5.80;99.90
11609;DHT22;5860;52.018;8.536;2023-02-15T18:22:59;5.70;99.90
11609;DHT22;5860;52.018;8.536;2023-02-15T18:25:27;5.90;99.90
11609;DHT22;5860;52.018;8.536;2023-02-15T18:27:54;5.80;99.90
11609;DHT22;5860;52.018;8.536;2023-02-15T18:30:23;5.80;99.90
11609;DHT22;5860;52.018;8.536;2023-02-15T18:32:55;5.80;99.90
11609;DHT22;5860;52.018;8.536;2023-02-15T18:35:26;5.80;99.90
11609;DHT22;5860;52.018;8.536;2023-02-15T18:37:54;5.70;99.90
11609;DHT22;5860;52.018;8.536;2023-02-15T18:40:24;5.70;99.90
11609;DHT22;5860;52.018;8.536;2023-02-15T18:42:52;5.60;99.90
11609;DHT22;5860;52.018;8.536;2023-02-15T18:45:27;5.60;99.90
11609;DHT22;5860;52.018;8.536;2023-02-15T18:47:58;5.40;99.90
11609;DHT22;5860;52.018;8.536;2023-02-15T18:50:28;5.30;99.90
11609;DHT22;5860;52.018;8.536;2023-02-15T18:52:56;5.30;99.90
11609;DHT22;5860;52.018;8.536;2023-02-15T18:55:26;5.30;99.90
11609;DHT22;5860;52.018;8.536;2023-02-15T18:57:55;5.20;99.90
11609;DHT22;5860;52.018;8.536;2023-02-15T19:00:25;5.10;99.90
11609;DHT22;5860;52.018;8.536;2023-02-15T19:02:55;5.20;99.90
11609;DHT22;5860;52.018;8.536;2023-02-15T19:05:22;5.20;99.90
11609;DHT22;5860;52.018;8.536;2023-02-15T19:07:50;5.20;99.90
11609;DHT22;5860;52.018;8.536;2023-02-15T19:10:20;5.10;99.90
11609;DHT22;5860;52.018;8.536;2023-02-15T19:12:48;5.00;99.90
11609;DHT22;5860;52.018;8.536;2023-02-15T19:15:20;4.80;99.90
11609;DHT22;5860;52.018;8.536;2023-02-15T19:17:48;4.80;99.90
11609;DHT22;5860;52.018;8.536;2023-02-15T19:20:18;4.70;99.90